sensor_id;sensor_type;location;lat;lon;timestamp;P1;durP1;ratioP1;P2;durP2;ratioP2
25341;SDS011;13298;48.792;9.154;2022-08-23T00:01:31;2.87;;;1.73;;
25341;SDS011;13298;48.792;9.154;2022-08-23T00:04:01;3.30;;;2.08;;
25341;SDS011;13298;48.792;9.154;2022-08-23T00:06:31;3.72;;;1.83;;
25341;SDS011;13298;48.792;9.154;2022-08-23T00:08:57;2.58;;;1.70;;
25341;SDS011;13298;48.792;9.154;2022-08-23T00:11:28;2.20;;;1.50;;
25341;SDS011;13298;48.792;9.154;2022-08-23T00:13:59;7.57;;;2.08;;
25341;SDS011;13298;48.792;9.154;2022-08-23T00:16:31;2.63;;;1.90;;
25341;SDS011;13298;48.792;9.154;2022-08-23T00:18:57;3.38;;;2.22;;
25341;SDS011;13298;48.792;9.154;2022-08-23T00:21:23;4.90;;;2.15;;
25341;SDS011;13298;48.792;9.154;2022-08-23T00:23:48;3.30;;;1.90;;
25341;SDS011;13298;48.792;9.154;2022-08-23T00:26:15;5.18;;;1.88;;
25341;SDS011;13298;48.792;9.154;2022-08-23T00:28:41;3.20;;;1.90;;
25341;SDS011;13298;48.792;9.154;2022-08-23T00:31:07;2.05;;;1.70;;
25341;SDS011;13298;48.792;9.154;2022-08-23T00:33:33;3.08;;;1.90;;
25341;SDS011;13298;48.792;9.154;2022-08-23T00:35:59;3.83;;;1.67;;
25341;SDS011;13298;48.792;9.154;2022-08-23T00:38:24;3.00;;;1.90;;
25341;SDS011;13298;48.792;9.154;2022-08-23T00:40:51;3.00;;;1.83;;
25341;SDS011;13298;48.792;9.154;2022-08-23T00:43:28;2.70;;;1.60;;
25341;SDS011;13298;48.792;9.154;2022-08-23T00:49:31;6.00;;;1.77;;
25341;SDS011;13298;48.792;9.154;2022-08-23T00:52:04;2.25;;;1.73;;
25341;SDS011;13298;48.792;9.154;2022-08-23T00:55:09;3.67;;;1.85;;
25341;SDS011;13298;48.792;9.154;2022-08-23T00:57:36;2.88;;;1.77;;
25341;SDS011;13298;48.792;9.154;2022-08-23T01:00:04;2.78;;;1.70;;
25341;SDS011;13298;48.792;9.154;2022-08-23T01:02:32;3.22;;;1.70;;
25341;SDS011;13298;48.792;9.154;2022-08-23T01:04:58;3.28;;;1.75;;
25341;SDS011;13298;48.792;9.154;2022-08-23T01:10:06;2.63;;;1.73;;
25341;SDS011;13298;48.792;9.154;2022-08-23T01:12:41;2.17;;;1.50;;
25341;SDS011;13298;48.792;9.154;2022-08-23T01:15:15;2.33;;;1.80;;
25341;SDS011;13298;48.792;9.154;2022-08-23T01:17:50;2.53;;;1.67;;
25341;SDS011;13298;48.792;9.154;2022-08-23T01:25:29;2.38;;;1.85;;
25341;SDS011;13298;48.792;9.154;2022-08-23T01:27:57;3.92;;;2.60;;
25341;SDS011;13298;48.792;9.154;2022-08-23T01:30:26;2.80;;;2.03;;
25341;SDS011;13298;48.792;9.154;2022-08-23T01:39:04;2.95;;;1.98;;
25341;SDS011;13298;48.792;9.154;2022-08-23T01:41:32;4.10;;;2.30;;
25341;SDS011;13298;48.792;9.154;2022-08-23T01:43:58;3.78;;;2.10;;
25341;SDS011;13298;48.792;9.154;2022-08-23T01:46:24;2.28;;;1.75;;
25341;SDS011;13298;48.792;9.154;2022-08-23T01:48:51;2.42;;;1.80;;
25341;SDS011;13298;48.792;9.154;2022-08-23T01:51:19;3.83;;;2.13;;
25341;SDS011;13298;48.792;9.154;2022-08-23T01:53:46;3.28;;;2.22;;
25341;SDS011;13298;48.792;9.154;2022-08-23T01:56:12;3.17;;;2.10;;
25341;SDS011;13298;48.792;9.154;2022-08-23T01:58:39;3.50;;;2.38;;
25341;SDS011;13298;48.792;9.154;2022-08-23T02:01:04;3.05;;;2.42;;
25341;SDS011;13298;48.792;9.154;2022-08-23T02:03:31;3.35;;;2.38;;
25341;SDS011;13298;48.792;9.154;2022-08-23T02:05:57;5.18;;;2.42;;
25341;SDS011;13298;48.792;9.154;2022-08-23T02:08:23;3.90;;;2.55;;
25341;SDS011;13298;48.792;9.154;2022-08-23T02:11:09;3.40;;;2.08;;
25341;SDS011;13298;48.792;9.154;2022-08-23T02:13:39;3.40;;;2.30;;
25341;SDS011;13298;48.792;9.154;2022-08-23T02:16:05;3.65;;;2.20;;
25341;SDS011;13298;48.792;9.154;2022-08-23T02:18:32;5.28;;;2.40;;
25341;SDS011;13298;48.792;9.154;2022-08-23T02:20:58;4.88;;;2.17;;
25341;SDS011;13298;48.792;9.154;2022-08-23T02:23:24;3.90;;;2.20;;
25341;SDS011;13298;48.792;9.154;2022-08-23T02:25:51;3.88;;;2.10;;
25341;SDS011;13298;48.792;9.154;2022-08-23T02:28:18;2.45;;;1.80;;
25341;SDS011;13298;48.792;9.154;2022-08-23T02:30:45;3.95;;;2.10;;
25341;SDS011;13298;48.792;9.154;2022-08-23T02:33:11;3.53;;;2.05;;
25341;SDS011;13298;48.792;9.154;2022-08-23T02:35:38;2.60;;;1.88;;
25341;SDS011;13298;48.792;9.154;2022-08-23T02:38:05;3.53;;;2.15;;
25341;SDS011;13298;48.792;9.154;2022-08-23T02:40:35;3.38;;;1.90;;
25341;SDS011;13298;48.792;9.154;2022-08-23T02:43:03;4.07;;;2.20;;
25341;SDS011;13298;48.792;9.154;2022-08-23T02:45:30;3.17;;;2.30;;
25341;SDS011;13298;48.792;9.154;2022-08-23T02:47:56;3.42;;;2.28;;
25341;SDS011;13298;48.792;9.154;2022-08-23T02:50:22;4.07;;;2.38;;
25341;SDS011;13298;48.792;9.154;2022-08-23T02:52:48;4.47;;;2.58;;
25341;SDS011;13298;48.792;9.154;2022-08-23T02:55:14;3.15;;;2.20;;
25341;SDS011;13298;48.792;9.154;2022-08-23T02:57:41;3.55;;;2.22;;
25341;SDS011;13298;48.792;9.154;2022-08-23T03:00:07;4.00;;;2.38;;
25341;SDS011;13298;48.792;9.154;2022-08-23T03:02:35;4.47;;;2.53;;
25341;SDS011;13298;48.792;9.154;2022-08-23T03:05:03;3.55;;;2.40;;
25341;SDS011;13298;48.792;9.154;2022-08-23T03:07:30;3.20;;;2.25;;
25341;SDS011;13298;48.792;9.154;2022-08-23T03:09:56;6.78;;;2.28;;
25341;SDS011;13298;48.792;9.154;2022-08-23T03:12:22;3.58;;;1.80;;
25341;SDS011;13298;48.792;9.154;2022-08-23T03:14:48;3.20;;;2.25;;
25341;SDS011;13298;48.792;9.154;2022-08-23T03:17:16;4.50;;;2.05;;
25341;SDS011;13298;48.792;9.154;2022-08-23T03:19:42;4.30;;;2.10;;
25341;SDS011;13298;48.792;9.154;2022-08-23T03:22:08;2.30;;;1.77;;
25341;SDS011;13298;48.792;9.154;2022-08-23T03:24:34;3.53;;;2.22;;
25341;SDS011;13298;48.792;9.154;2022-08-23T03:27:00;3.30;;;1.95;;
25341;SDS011;13298;48.792;9.154;2022-08-23T03:29:26;2.28;;;1.77;;
25341;SDS011;13298;48.792;9.154;2022-08-23T03:31:52;2.72;;;2.10;;
25341;SDS011;13298;48.792;9.154;2022-08-23T03:34:18;4.07;;;2.25;;
25341;SDS011;13298;48.792;9.154;2022-08-23T03:36:44;5.35;;;1.95;;
25341;SDS011;13298;48.792;9.154;2022-08-23T03:39:10;4.05;;;2.00;;
25341;SDS011;13298;48.792;9.154;2022-08-23T03:41:36;2.85;;;1.98;;
25341;SDS011;13298;48.792;9.154;2022-08-23T03:44:02;2.17;;;1.80;;
25341;SDS011;13298;48.792;9.154;2022-08-23T03:46:28;3.72;;;2.00;;
25341;SDS011;13298;48.792;9.154;2022-08-23T03:48:54;4.20;;;2.28;;
25341;SDS011;13298;48.792;9.154;2022-08-23T03:51:24;3.80;;;1.98;;
25341;SDS011;13298;48.792;9.154;2022-08-23T03:53:51;3.47;;;1.90;;
25341;SDS011;13298;48.792;9.154;2022-08-23T03:58:50;3.50;;;1.73;;
25341;SDS011;13298;48.792;9.154;2022-08-23T04:01:17;3.10;;;1.80;;
25341;SDS011;13298;48.792;9.154;2022-08-23T04:03:43;3.88;;;1.98;;
25341;SDS011;13298;48.792;9.154;2022-08-23T04:06:09;3.75;;;2.10;;
25341;SDS011;13298;48.792;9.154;2022-08-23T04:08:35;3.42;;;1.90;;
25341;SDS011;13298;48.792;9.154;2022-08-23T04:11:01;4.07;;;2.00;;
25341;SDS011;13298;48.792;9.154;2022-08-23T04:13:28;3.92;;;1.92;;
25341;SDS011;13298;48.792;9.154;2022-08-23T04:15:54;2.10;;;1.90;;
25341;SDS011;13298;48.792;9.154;2022-08-23T04:18:21;1.95;;;1.75;;
25341;SDS011;13298;48.792;9.154;2022-08-23T04:20:47;2.65;;;1.80;;
25341;SDS011;13298;48.792;9.154;2022-08-23T04:23:15;2.97;;;1.92;;
25341;SDS011;13298;48.792;9.154;2022-08-23T04:25:40;3.05;;;2.20;;
25341;SDS011;13298;48.792;9.154;2022-08-23T04:28:09;2.50;;;2.00;;
25341;SDS011;13298;48.792;9.154;2022-08-23T04:30:35;3.03;;;1.95;;
25341;SDS011;13298;48.792;9.154;2022-08-23T04:33:01;3.03;;;2.42;;
25341;SDS011;13298;48.792;9.154;2022-08-23T04:35:27;2.80;;;2.22;;
25341;SDS011;13298;48.792;9.154;2022-08-23T04:37:53;4.18;;;2.55;;
25341;SDS011;13298;48.792;9.154;2022-08-23T04:40:19;3.55;;;2.40;;
25341;SDS011;13298;48.792;9.154;2022-08-23T04:43:03;3.30;;;2.58;;
25341;SDS011;13298;48.792;9.154;2022-08-23T04:45:29;4.57;;;2.15;;
25341;SDS011;13298;48.792;9.154;2022-08-23T04:47:56;4.43;;;2.60;;
25341;SDS011;13298;48.792;9.154;2022-08-23T04:50:22;3.30;;;2.28;;
25341;SDS011;13298;48.792;9.154;2022-08-23T04:52:48;4.35;;;2.70;;
25341;SDS011;13298;48.792;9.154;2022-08-23T04:55:13;4.63;;;2.50;;
25341;SDS011;13298;48.792;9.154;2022-08-23T04:57:40;5.05;;;2.50;;
25341;SDS011;13298;48.792;9.154;2022-08-23T05:00:06;5.65;;;2.40;;
25341;SDS011;13298;48.792;9.154;2022-08-23T05:02:38;3.83;;;2.47;;
25341;SDS011;13298;48.792;9.154;2022-08-23T05:05:05;5.03;;;2.60;;
25341;SDS011;13298;48.792;9.154;2022-08-23T05:07:32;5.13;;;2.60;;
25341;SDS011;13298;48.792;9.154;2022-08-23T05:09:58;5.28;;;2.35;;
25341;SDS011;13298;48.792;9.154;2022-08-23T05:12:24;4.97;;;2.70;;
25341;SDS011;13298;48.792;9.154;2022-08-23T05:14:49;5.70;;;2.63;;
25341;SDS011;13298;48.792;9.154;2022-08-23T05:17:15;7.03;;;2.13;;
25341;SDS011;13298;48.792;9.154;2022-08-23T05:19:42;4.47;;;2.20;;
25341;SDS011;13298;48.792;9.154;2022-08-23T05:22:08;4.82;;;2.45;;
25341;SDS011;13298;48.792;9.154;2022-08-23T05:24:34;3.95;;;2.00;;
25341;SDS011;13298;48.792;9.154;2022-08-23T05:26:59;4.45;;;2.42;;
25341;SDS011;13298;48.792;9.154;2022-08-23T05:29:25;3.55;;;2.13;;
25341;SDS011;13298;48.792;9.154;2022-08-23T05:31:51;2.90;;;2.20;;
25341;SDS011;13298;48.792;9.154;2022-08-23T05:34:16;4.47;;;2.40;;
25341;SDS011;13298;48.792;9.154;2022-08-23T05:36:42;4.93;;;2.88;;
25341;SDS011;13298;48.792;9.154;2022-08-23T05:39:08;3.60;;;2.45;;
25341;SDS011;13298;48.792;9.154;2022-08-23T05:41:33;3.22;;;2.55;;
25341;SDS011;13298;48.792;9.154;2022-08-23T05:43:59;6.78;;;2.97;;
25341;SDS011;13298;48.792;9.154;2022-08-23T05:46:25;7.70;;;2.90;;
25341;SDS011;13298;48.792;9.154;2022-08-23T05:48:51;4.85;;;2.70;;
25341;SDS011;13298;48.792;9.154;2022-08-23T05:51:18;4.72;;;2.58;;
25341;SDS011;13298;48.792;9.154;2022-08-23T05:53:48;8.25;;;2.55;;
25341;SDS011;13298;48.792;9.154;2022-08-23T05:58:59;4.35;;;2.88;;
25341;SDS011;13298;48.792;9.154;2022-08-23T06:01:30;2.97;;;2.20;;
25341;SDS011;13298;48.792;9.154;2022-08-23T06:03:58;2.97;;;2.38;;
25341;SDS011;13298;48.792;9.154;2022-08-23T06:06:25;4.95;;;2.20;;
25341;SDS011;13298;48.792;9.154;2022-08-23T06:08:51;2.83;;;2.10;;
25341;SDS011;13298;48.792;9.154;2022-08-23T06:11:19;3.13;;;1.90;;
25341;SDS011;13298;48.792;9.154;2022-08-23T06:13:54;3.67;;;2.13;;
25341;SDS011;13298;48.792;9.154;2022-08-23T06:16:24;6.15;;;2.80;;
25341;SDS011;13298;48.792;9.154;2022-08-23T06:18:56;4.20;;;2.22;;
25341;SDS011;13298;48.792;9.154;2022-08-23T06:21:24;4.60;;;2.60;;
25341;SDS011;13298;48.792;9.154;2022-08-23T06:23:50;4.10;;;2.35;;
25341;SDS011;13298;48.792;9.154;2022-08-23T06:26:20;6.05;;;2.90;;
25341;SDS011;13298;48.792;9.154;2022-08-23T06:28:51;5.40;;;3.03;;
25341;SDS011;13298;48.792;9.154;2022-08-23T06:31:20;5.68;;;2.60;;
25341;SDS011;13298;48.792;9.154;2022-08-23T06:34:11;3.35;;;2.30;;
25341;SDS011;13298;48.792;9.154;2022-08-23T06:36:50;6.45;;;2.47;;
25341;SDS011;13298;48.792;9.154;2022-08-23T06:39:21;4.65;;;2.10;;
25341;SDS011;13298;48.792;9.154;2022-08-23T06:41:51;3.15;;;2.22;;
25341;SDS011;13298;48.792;9.154;2022-08-23T06:44:18;4.45;;;2.30;;
25341;SDS011;13298;48.792;9.154;2022-08-23T06:46:44;5.70;;;2.80;;
25341;SDS011;13298;48.792;9.154;2022-08-23T06:49:12;3.60;;;2.40;;
25341;SDS011;13298;48.792;9.154;2022-08-23T06:51:40;4.68;;;2.45;;
25341;SDS011;13298;48.792;9.154;2022-08-23T06:54:09;7.15;;;3.08;;
25341;SDS011;13298;48.792;9.154;2022-08-23T06:56:38;4.95;;;2.55;;
25341;SDS011;13298;48.792;9.154;2022-08-23T06:59:05;6.63;;;2.53;;
25341;SDS011;13298;48.792;9.154;2022-08-23T07:01:35;6.95;;;2.53;;
25341;SDS011;13298;48.792;9.154;2022-08-23T07:04:12;4.65;;;2.00;;
25341;SDS011;13298;48.792;9.154;2022-08-23T07:06:41;4.28;;;2.38;;
25341;SDS011;13298;48.792;9.154;2022-08-23T07:09:07;4.50;;;2.83;;
25341;SDS011;13298;48.792;9.154;2022-08-23T07:11:34;4.22;;;2.60;;
25341;SDS011;13298;48.792;9.154;2022-08-23T07:14:01;3.92;;;2.20;;
25341;SDS011;13298;48.792;9.154;2022-08-23T07:16:31;5.53;;;2.67;;
25341;SDS011;13298;48.792;9.154;2022-08-23T07:18:59;4.10;;;2.40;;
25341;SDS011;13298;48.792;9.154;2022-08-23T07:21:25;5.55;;;2.20;;
25341;SDS011;13298;48.792;9.154;2022-08-23T07:23:50;5.53;;;2.42;;
25341;SDS011;13298;48.792;9.154;2022-08-23T07:26:17;5.22;;;2.50;;
25341;SDS011;13298;48.792;9.154;2022-08-23T07:28:45;6.63;;;2.40;;
25341;SDS011;13298;48.792;9.154;2022-08-23T07:31:19;3.45;;;2.10;;
25341;SDS011;13298;48.792;9.154;2022-08-23T07:33:51;3.97;;;2.33;;
25341;SDS011;13298;48.792;9.154;2022-08-23T07:36:19;6.55;;;2.75;;
25341;SDS011;13298;48.792;9.154;2022-08-23T07:38:47;6.53;;;3.67;;
25341;SDS011;13298;48.792;9.154;2022-08-23T07:41:14;4.32;;;2.60;;
25341;SDS011;13298;48.792;9.154;2022-08-23T07:43:41;4.18;;;2.50;;
25341;SDS011;13298;48.792;9.154;2022-08-23T07:46:07;4.78;;;2.53;;
25341;SDS011;13298;48.792;9.154;2022-08-23T07:48:34;6.82;;;2.70;;
25341;SDS011;13298;48.792;9.154;2022-08-23T07:51:01;6.03;;;2.63;;
25341;SDS011;13298;48.792;9.154;2022-08-23T07:53:31;2.75;;;2.13;;
25341;SDS011;13298;48.792;9.154;2022-08-23T07:55:58;7.38;;;2.45;;
25341;SDS011;13298;48.792;9.154;2022-08-23T07:58:28;3.20;;;2.25;;
25341;SDS011;13298;48.792;9.154;2022-08-23T08:00:54;4.32;;;2.95;;
25341;SDS011;13298;48.792;9.154;2022-08-23T08:03:20;5.65;;;2.85;;
25341;SDS011;13298;48.792;9.154;2022-08-23T08:05:45;5.72;;;2.67;;
25341;SDS011;13298;48.792;9.154;2022-08-23T08:08:11;3.40;;;2.30;;
25341;SDS011;13298;48.792;9.154;2022-08-23T08:10:38;3.70;;;2.22;;
25341;SDS011;13298;48.792;9.154;2022-08-23T08:13:05;6.78;;;2.92;;
25341;SDS011;13298;48.792;9.154;2022-08-23T08:15:32;8.07;;;2.80;;
25341;SDS011;13298;48.792;9.154;2022-08-23T08:17:59;6.18;;;2.63;;
25341;SDS011;13298;48.792;9.154;2022-08-23T08:20:25;5.78;;;2.58;;
25341;SDS011;13298;48.792;9.154;2022-08-23T08:22:52;9.02;;;2.47;;
25341;SDS011;13298;48.792;9.154;2022-08-23T08:25:19;2.97;;;2.42;;
25341;SDS011;13298;48.792;9.154;2022-08-23T08:27:45;3.83;;;2.42;;
25341;SDS011;13298;48.792;9.154;2022-08-23T08:30:12;4.00;;;2.58;;
25341;SDS011;13298;48.792;9.154;2022-08-23T08:32:38;8.18;;;2.30;;
25341;SDS011;13298;48.792;9.154;2022-08-23T08:35:05;3.65;;;2.33;;
25341;SDS011;13298;48.792;9.154;2022-08-23T08:37:31;4.88;;;2.25;;
25341;SDS011;13298;48.792;9.154;2022-08-23T08:39:58;4.22;;;2.45;;
25341;SDS011;13298;48.792;9.154;2022-08-23T08:45:21;5.07;;;2.40;;
25341;SDS011;13298;48.792;9.154;2022-08-23T08:47:52;5.65;;;2.85;;
25341;SDS011;13298;48.792;9.154;2022-08-23T08:50:32;4.35;;;2.47;;
25341;SDS011;13298;48.792;9.154;2022-08-23T08:53:27;4.90;;;2.50;;
25341;SDS011;13298;48.792;9.154;2022-08-23T08:56:01;4.25;;;2.38;;
25341;SDS011;13298;48.792;9.154;2022-08-23T08:58:40;4.57;;;2.22;;
25341;SDS011;13298;48.792;9.154;2022-08-23T09:01:14;3.17;;;1.83;;
25341;SDS011;13298;48.792;9.154;2022-08-23T09:03:42;3.70;;;1.65;;
25341;SDS011;13298;48.792;9.154;2022-08-23T09:06:13;3.13;;;2.08;;
25341;SDS011;13298;48.792;9.154;2022-08-23T09:12:04;4.30;;;2.15;;
25341;SDS011;13298;48.792;9.154;2022-08-23T09:14:51;5.13;;;2.70;;
25341;SDS011;13298;48.792;9.154;2022-08-23T09:22:48;7.55;;;2.78;;
25341;SDS011;13298;48.792;9.154;2022-08-23T09:25:28;7.53;;;2.58;;
25341;SDS011;13298;48.792;9.154;2022-08-23T09:27:54;2.95;;;2.30;;
25341;SDS011;13298;48.792;9.154;2022-08-23T09:30:20;4.18;;;2.20;;
25341;SDS011;13298;48.792;9.154;2022-08-23T09:32:46;6.05;;;2.75;;
25341;SDS011;13298;48.792;9.154;2022-08-23T09:35:21;5.38;;;2.45;;
25341;SDS011;13298;48.792;9.154;2022-08-23T09:43:13;2.85;;;1.88;;
25341;SDS011;13298;48.792;9.154;2022-08-23T09:48:14;2.75;;;1.95;;
25341;SDS011;13298;48.792;9.154;2022-08-23T09:51:04;3.88;;;1.80;;
25341;SDS011;13298;48.792;9.154;2022-08-23T09:53:42;2.50;;;1.90;;
25341;SDS011;13298;48.792;9.154;2022-08-23T09:56:15;5.47;;;2.00;;
25341;SDS011;13298;48.792;9.154;2022-08-23T09:58:48;2.97;;;1.83;;
25341;SDS011;13298;48.792;9.154;2022-08-23T10:01:25;6.40;;;2.15;;
25341;SDS011;13298;48.792;9.154;2022-08-23T10:06:42;2.92;;;1.75;;
25341;SDS011;13298;48.792;9.154;2022-08-23T10:09:21;3.63;;;1.98;;
25341;SDS011;13298;48.792;9.154;2022-08-23T10:11:57;4.85;;;1.92;;
25341;SDS011;13298;48.792;9.154;2022-08-23T10:14:25;2.70;;;1.83;;
25341;SDS011;13298;48.792;9.154;2022-08-23T10:17:03;2.28;;;1.80;;
25341;SDS011;13298;48.792;9.154;2022-08-23T10:20:03;4.05;;;1.83;;
25341;SDS011;13298;48.792;9.154;2022-08-23T10:26:45;5.68;;;2.13;;
25341;SDS011;13298;48.792;9.154;2022-08-23T10:29:38;3.67;;;1.70;;
25341;SDS011;13298;48.792;9.154;2022-08-23T10:32:20;1.83;;;1.63;;
25341;SDS011;13298;48.792;9.154;2022-08-23T10:46:54;3.75;;;2.15;;
25341;SDS011;13298;48.792;9.154;2022-08-23T10:49:52;3.72;;;2.00;;
25341;SDS011;13298;48.792;9.154;2022-08-23T10:52:22;2.80;;;1.83;;
25341;SDS011;13298;48.792;9.154;2022-08-23T10:54:59;3.25;;;1.77;;
25341;SDS011;13298;48.792;9.154;2022-08-23T10:57:40;4.53;;;2.00;;
25341;SDS011;13298;48.792;9.154;2022-08-23T11:00:14;2.67;;;1.90;;
25341;SDS011;13298;48.792;9.154;2022-08-23T11:02:53;2.40;;;1.65;;
25341;SDS011;13298;48.792;9.154;2022-08-23T11:05:30;3.80;;;2.15;;
25341;SDS011;13298;48.792;9.154;2022-08-23T11:08:01;5.32;;;1.70;;
25341;SDS011;13298;48.792;9.154;2022-08-23T11:13:17;2.28;;;1.73;;
25341;SDS011;13298;48.792;9.154;2022-08-23T11:15:54;3.25;;;1.70;;
25341;SDS011;13298;48.792;9.154;2022-08-23T11:23:34;3.60;;;2.03;;
25341;SDS011;13298;48.792;9.154;2022-08-23T11:28:52;4.25;;;1.92;;
25341;SDS011;13298;48.792;9.154;2022-08-23T11:31:31;2.30;;;1.67;;
25341;SDS011;13298;48.792;9.154;2022-08-23T11:34:47;4.80;;;1.80;;
25341;SDS011;13298;48.792;9.154;2022-08-23T11:37:53;2.65;;;1.88;;
25341;SDS011;13298;48.792;9.154;2022-08-23T11:40:35;3.88;;;1.88;;
25341;SDS011;13298;48.792;9.154;2022-08-23T11:46:54;4.15;;;1.90;;
25341;SDS011;13298;48.792;9.154;2022-08-23T11:51:56;2.97;;;2.05;;
25341;SDS011;13298;48.792;9.154;2022-08-23T12:01:14;2.25;;;1.70;;
25341;SDS011;13298;48.792;9.154;2022-08-23T12:03:41;4.32;;;1.90;;
25341;SDS011;13298;48.792;9.154;2022-08-23T12:06:36;2.35;;;1.83;;
25341;SDS011;13298;48.792;9.154;2022-08-23T12:19:52;3.05;;;1.92;;
25341;SDS011;13298;48.792;9.154;2022-08-23T12:22:54;5.55;;;2.28;;
25341;SDS011;13298;48.792;9.154;2022-08-23T12:25:26;3.22;;;2.03;;
25341;SDS011;13298;48.792;9.154;2022-08-23T12:27:56;2.85;;;2.08;;
25341;SDS011;13298;48.792;9.154;2022-08-23T12:30:33;2.75;;;1.85;;
25341;SDS011;13298;48.792;9.154;2022-08-23T12:33:30;3.33;;;2.03;;
25341;SDS011;13298;48.792;9.154;2022-08-23T12:36:26;2.67;;;1.98;;
25341;SDS011;13298;48.792;9.154;2022-08-23T12:39:18;4.70;;;2.25;;
25341;SDS011;13298;48.792;9.154;2022-08-23T12:42:15;5.15;;;2.20;;
25341;SDS011;13298;48.792;9.154;2022-08-23T12:44:45;4.88;;;2.10;;
25341;SDS011;13298;48.792;9.154;2022-08-23T12:47:28;3.05;;;2.00;;
25341;SDS011;13298;48.792;9.154;2022-08-23T12:52:29;3.65;;;2.08;;
25341;SDS011;13298;48.792;9.154;2022-08-23T12:54:58;3.88;;;2.00;;
25341;SDS011;13298;48.792;9.154;2022-08-23T12:57:34;3.78;;;2.20;;
25341;SDS011;13298;48.792;9.154;2022-08-23T13:02:41;3.75;;;1.88;;
25341;SDS011;13298;48.792;9.154;2022-08-23T13:05:22;3.03;;;1.75;;
25341;SDS011;13298;48.792;9.154;2022-08-23T13:07:57;3.22;;;1.85;;
25341;SDS011;13298;48.792;9.154;2022-08-23T13:10:30;6.13;;;2.20;;
25341;SDS011;13298;48.792;9.154;2022-08-23T13:12:56;4.53;;;1.98;;
25341;SDS011;13298;48.792;9.154;2022-08-23T13:18:26;2.35;;;1.92;;
25341;SDS011;13298;48.792;9.154;2022-08-23T13:23:58;4.78;;;2.10;;
25341;SDS011;13298;48.792;9.154;2022-08-23T13:27:48;2.30;;;1.80;;
25341;SDS011;13298;48.792;9.154;2022-08-23T13:40:39;3.35;;;2.00;;
25341;SDS011;13298;48.792;9.154;2022-08-23T13:45:59;3.90;;;2.10;;
25341;SDS011;13298;48.792;9.154;2022-08-23T13:51:29;2.65;;;1.83;;
25341;SDS011;13298;48.792;9.154;2022-08-23T13:54:01;4.03;;;1.98;;
25341;SDS011;13298;48.792;9.154;2022-08-23T13:56:39;3.90;;;1.83;;
25341;SDS011;13298;48.792;9.154;2022-08-23T13:59:32;3.67;;;1.90;;
25341;SDS011;13298;48.792;9.154;2022-08-23T14:02:08;3.05;;;2.10;;
25341;SDS011;13298;48.792;9.154;2022-08-23T14:04:38;2.55;;;1.98;;
25341;SDS011;13298;48.792;9.154;2022-08-23T14:07:05;4.60;;;1.75;;
25341;SDS011;13298;48.792;9.154;2022-08-23T14:09:31;2.13;;;1.77;;
25341;SDS011;13298;48.792;9.154;2022-08-23T14:12:00;2.42;;;2.00;;
25341;SDS011;13298;48.792;9.154;2022-08-23T14:14:32;2.55;;;2.08;;
25341;SDS011;13298;48.792;9.154;2022-08-23T14:17:00;2.30;;;1.70;;
25341;SDS011;13298;48.792;9.154;2022-08-23T14:19:26;1.98;;;1.40;;
25341;SDS011;13298;48.792;9.154;2022-08-23T14:21:52;4.85;;;1.80;;
25341;SDS011;13298;48.792;9.154;2022-08-23T14:24:18;2.65;;;2.00;;
25341;SDS011;13298;48.792;9.154;2022-08-23T14:26:44;2.85;;;1.88;;
25341;SDS011;13298;48.792;9.154;2022-08-23T14:29:10;2.50;;;1.90;;
25341;SDS011;13298;48.792;9.154;2022-08-23T14:31:35;3.05;;;1.80;;
25341;SDS011;13298;48.792;9.154;2022-08-23T14:34:01;3.60;;;1.80;;
25341;SDS011;13298;48.792;9.154;2022-08-23T14:36:27;2.83;;;1.80;;
25341;SDS011;13298;48.792;9.154;2022-08-23T14:38:52;3.47;;;2.15;;
25341;SDS011;13298;48.792;9.154;2022-08-23T14:41:19;2.45;;;2.08;;
25341;SDS011;13298;48.792;9.154;2022-08-23T14:43:47;5.65;;;2.00;;
25341;SDS011;13298;48.792;9.154;2022-08-23T14:46:14;2.33;;;1.88;;
25341;SDS011;13298;48.792;9.154;2022-08-23T14:48:40;2.22;;;1.80;;
25341;SDS011;13298;48.792;9.154;2022-08-23T14:51:10;4.43;;;1.67;;
25341;SDS011;13298;48.792;9.154;2022-08-23T14:53:56;3.42;;;2.05;;
25341;SDS011;13298;48.792;9.154;2022-08-23T14:56:23;3.42;;;2.25;;
25341;SDS011;13298;48.792;9.154;2022-08-23T14:58:49;4.60;;;1.88;;
25341;SDS011;13298;48.792;9.154;2022-08-23T15:01:15;3.15;;;1.98;;
25341;SDS011;13298;48.792;9.154;2022-08-23T15:03:43;3.17;;;2.10;;
25341;SDS011;13298;48.792;9.154;2022-08-23T15:06:10;3.28;;;2.05;;
25341;SDS011;13298;48.792;9.154;2022-08-23T15:08:41;4.20;;;2.20;;
25341;SDS011;13298;48.792;9.154;2022-08-23T15:11:07;2.05;;;1.90;;
25341;SDS011;13298;48.792;9.154;2022-08-23T15:13:35;2.83;;;1.85;;
25341;SDS011;13298;48.792;9.154;2022-08-23T15:16:04;2.88;;;2.00;;
25341;SDS011;13298;48.792;9.154;2022-08-23T15:18:32;3.65;;;1.90;;
25341;SDS011;13298;48.792;9.154;2022-08-23T15:21:00;3.60;;;2.30;;
25341;SDS011;13298;48.792;9.154;2022-08-23T15:23:26;3.10;;;2.20;;
25341;SDS011;13298;48.792;9.154;2022-08-23T15:25:52;3.90;;;2.40;;
25341;SDS011;13298;48.792;9.154;2022-08-23T15:28:19;3.53;;;2.10;;
25341;SDS011;13298;48.792;9.154;2022-08-23T15:30:46;3.05;;;2.00;;
25341;SDS011;13298;48.792;9.154;2022-08-23T15:33:13;2.95;;;1.92;;
25341;SDS011;13298;48.792;9.154;2022-08-23T15:35:41;2.13;;;1.80;;
25341;SDS011;13298;48.792;9.154;2022-08-23T15:38:11;3.30;;;1.92;;
25341;SDS011;13298;48.792;9.154;2022-08-23T15:40:39;3.83;;;1.90;;
25341;SDS011;13298;48.792;9.154;2022-08-23T15:43:04;4.57;;;2.30;;
25341;SDS011;13298;48.792;9.154;2022-08-23T15:45:31;2.53;;;2.03;;
25341;SDS011;13298;48.792;9.154;2022-08-23T15:47:57;3.95;;;1.67;;
25341;SDS011;13298;48.792;9.154;2022-08-23T15:50:26;3.15;;;1.80;;
25341;SDS011;13298;48.792;9.154;2022-08-23T15:52:57;2.88;;;1.92;;
25341;SDS011;13298;48.792;9.154;2022-08-23T15:55:23;2.90;;;2.00;;
25341;SDS011;13298;48.792;9.154;2022-08-23T15:57:54;3.40;;;2.03;;
25341;SDS011;13298;48.792;9.154;2022-08-23T16:00:22;1.52;;;1.42;;
25341;SDS011;13298;48.792;9.154;2022-08-23T16:02:49;2.75;;;1.88;;
25341;SDS011;13298;48.792;9.154;2022-08-23T16:05:16;2.60;;;1.80;;
25341;SDS011;13298;48.792;9.154;2022-08-23T16:07:42;2.95;;;2.10;;
25341;SDS011;13298;48.792;9.154;2022-08-23T16:10:09;2.67;;;2.17;;
25341;SDS011;13298;48.792;9.154;2022-08-23T16:12:38;3.03;;;2.30;;
25341;SDS011;13298;48.792;9.154;2022-08-23T16:15:05;3.92;;;2.00;;
25341;SDS011;13298;48.792;9.154;2022-08-23T16:17:31;3.90;;;2.17;;
25341;SDS011;13298;48.792;9.154;2022-08-23T16:19:59;3.58;;;1.80;;
25341;SDS011;13298;48.792;9.154;2022-08-23T16:22:25;4.22;;;2.38;;
25341;SDS011;13298;48.792;9.154;2022-08-23T16:24:50;2.97;;;2.10;;
25341;SDS011;13298;48.792;9.154;2022-08-23T16:27:18;5.63;;;2.17;;
25341;SDS011;13298;48.792;9.154;2022-08-23T16:29:43;3.45;;;2.35;;
25341;SDS011;13298;48.792;9.154;2022-08-23T16:32:09;3.47;;;1.98;;
25341;SDS011;13298;48.792;9.154;2022-08-23T16:34:35;2.40;;;2.15;;
25341;SDS011;13298;48.792;9.154;2022-08-23T16:37:02;2.55;;;2.08;;
25341;SDS011;13298;48.792;9.154;2022-08-23T16:39:30;2.38;;;1.92;;
25341;SDS011;13298;48.792;9.154;2022-08-23T16:41:59;2.38;;;1.95;;
25341;SDS011;13298;48.792;9.154;2022-08-23T16:44:28;3.85;;;2.30;;
25341;SDS011;13298;48.792;9.154;2022-08-23T16:46:55;5.10;;;2.20;;
25341;SDS011;13298;48.792;9.154;2022-08-23T16:49:21;4.40;;;2.05;;
25341;SDS011;13298;48.792;9.154;2022-08-23T16:51:46;2.17;;;1.80;;
25341;SDS011;13298;48.792;9.154;2022-08-23T16:54:12;2.38;;;1.85;;
25341;SDS011;13298;48.792;9.154;2022-08-23T16:56:38;3.55;;;2.00;;
25341;SDS011;13298;48.792;9.154;2022-08-23T16:59:05;2.60;;;2.00;;
25341;SDS011;13298;48.792;9.154;2022-08-23T17:01:44;2.60;;;1.90;;
25341;SDS011;13298;48.792;9.154;2022-08-23T17:04:22;2.55;;;1.98;;
25341;SDS011;13298;48.792;9.154;2022-08-23T17:06:50;2.95;;;2.00;;
25341;SDS011;13298;48.792;9.154;2022-08-23T17:09:18;3.15;;;2.10;;